Time;durP1;ratioP1;P1;durP2;ratioP2;P2;SDS_P1;SDS_P2;PMS_P1;PMS_P2;Temp;Humidity;BMP_temperature;BMP_pressure;BME280_temperature;BME280_humidity;BME280_pressure;Samples;Min_cycle;Max_cycle;Signal;HPM_P1;HPM_P2
2022/03/23 00:01:09;;;;;;;40.43;20.53;;;12.90;45.50;;;;;;4993725;28;20203;-89
2022/03/23 00:03:36;;;;;;;39.05;22.48;;;12.90;45.70;;;;;;5027965;28;20209;-89
2022/03/23 00:06:02;;;;;;;36.25;17.20;;;12.80;45.80;;;;;;5008895;28;20175;-88
2022/03/23 00:08:28;;;;;;;37.60;18.70;;;12.80;46.10;;;;;;5010906;28;20182;-88
2022/03/23 00:10:54;;;;;;;35.57;18.60;;;12.90;46.30;;;;;;5003998;28;20203;-90
2022/03/23 00:13:20;;;;;;;27.00;17.05;;;12.90;46.40;;;;;;5018124;28;20531;-89
2022/03/23 00:15:47;;;;;;;34.73;17.90;;;12.90;46.50;;;;;;5013563;28;20182;-90
2022/03/23 00:18:12;;;;;;;38.53;18.95;;;12.90;46.50;;;;;;5003856;28;20201;-88
2022/03/23 00:20:39;;;;;;;37.90;18.30;;;12.80;46.70;;;;;;5006012;28;20213;-89
2022/03/23 00:23:05;;;;;;;40.30;18.85;;;12.40;47.30;;;;;;4997820;28;20194;-89
2022/03/23 00:25:31;;;;;;;36.17;17.90;;;12.20;48.10;;;;;;4997342;28;20256;-89
2022/03/23 00:27:57;;;;;;;42.80;21.33;;;12.10;48.70;;;;;;4997876;28;20638;-89
2022/03/23 00:30:23;;;;;;;34.33;18.23;;;12.30;48.60;;;;;;4997307;28;20353;-88
2022/03/23 00:32:50;;;;;;;31.63;17.73;;;12.10;48.50;;;;;;5007584;28;20439;-88
2022/03/23 00:35:16;;;;;;;38.60;20.27;;;12.20;48.30;;;;;;5016372;28;20429;-89
2022/03/23 00:37:43;;;;;;;34.80;18.33;;;12.20;48.30;;;;;;5016651;28;20253;-88
2022/03/23 00:40:09;;;;;;;40.53;18.85;;;12.20;48.20;;;;;;5017216;28;20445;-89
2022/03/23 00:42:36;;;;;;;38.15;18.35;;;12.20;48.00;;;;;;5034966;28;20232;-88
2022/03/23 00:45:04;;;;;;;40.58;19.17;;;12.10;48.20;;;;;;5017096;28;20228;-88
2022/03/23 00:47:29;;;;;;;33.47;19.00;;;12.20;48.00;;;;;;5037248;28;20631;-89
2022/03/23 00:49:55;;;;;;;37.53;19.43;;;12.10;48.20;;;;;;5017095;28;20242;-89
2022/03/23 00:52:21;;;;;;;34.57;19.50;;;12.10;48.40;;;;;;5019565;28;20178;-88
2022/03/23 00:54:46;;;;;;;26.27;17.17;;;12.10;48.50;;;;;;5017634;28;20189;-88
2022/03/23 00:57:12;;;;;;;28.87;17.77;;;12.10;48.20;;;;;;5026916;28;20423;-90
2022/03/23 00:59:38;;;;;;;35.23;18.17;;;12.00;48.00;;;;;;5030886;28;20229;-89
2022/03/23 01:02:05;;;;;;;30.73;16.07;;;12.20;48.00;;;;;;5035828;28;20452;-89
2022/03/23 01:04:31;;;;;;;39.22;19.08;;;12.10;48.00;;;;;;5036503;28;20192;-89
2022/03/23 01:06:58;;;;;;;37.75;18.67;;;12.00;48.10;;;;;;5043328;28;20209;-89
2022/03/23 01:09:25;;;;;;;33.40;18.00;;;12.00;48.20;;;;;;5016966;28;20256;-88
2022/03/23 01:11:52;;;;;;;37.28;20.40;;;12.10;48.40;;;;;;5016999;28;20663;-88
2022/03/23 01:14:19;;;;;;;37.13;17.60;;;12.10;48.60;;;;;;5016413;28;20170;-89
2022/03/23 01:16:45;;;;;;;30.63;19.08;;;12.00;48.90;;;;;;5022198;28;20182;-89
2022/03/23 01:19:12;;;;;;;35.65;19.60;;;12.00;49.00;;;;;;5029286;28;20228;-89
2022/03/23 01:21:38;;;;;;;37.25;18.55;;;11.80;49.30;;;;;;5017578;28;20231;-88
2022/03/23 01:24:06;;;;;;;42.10;21.70;;;11.80;49.70;;;;;;5017319;28;20182;-88
2022/03/23 01:26:32;;;;;;;34.78;17.90;;;12.00;50.00;;;;;;5034059;28;20501;-89
2022/03/23 01:28:58;;;;;;;44.53;21.20;;;12.00;49.10;;;;;;5016416;28;20290;-89
2022/03/23 01:31:24;;;;;;;38.67;20.25;;;12.10;49.40;;;;;;5016374;28;20174;-88
2022/03/23 01:33:50;;;;;;;42.13;20.27;;;12.10;48.30;;;;;;5015849;28;20678;-89
2022/03/23 01:36:16;;;;;;;46.50;19.23;;;12.00;47.90;;;;;;5017103;28;20261;-88
2022/03/23 01:38:41;;;;;;;38.20;19.47;;;11.90;48.50;;;;;;5016221;28;20184;-88
2022/03/23 01:41:07;;;;;;;35.37;19.53;;;11.90;48.30;;;;;;4999259;28;20469;-89
2022/03/23 01:43:33;;;;;;;34.03;17.42;;;12.00;48.10;;;;;;4996384;28;20175;-89
2022/03/23 01:46:00;;;;;;;33.27;19.73;;;12.00;48.20;;;;;;5013482;28;20175;-89
2022/03/23 01:48:26;;;;;;;31.77;18.52;;;11.80;48.30;;;;;;4996022;28;20170;-89
2022/03/23 01:51:06;;;;;;;41.60;19.67;;;11.60;48.80;;;;;;5009537;28;20214;-91
2022/03/23 01:53:32;;;;;;;28.13;17.20;;;11.60;49.00;;;;;;5033891;28;20188;-89
2022/03/23 01:55:58;;;;;;;40.00;18.80;;;11.50;49.30;;;;;;5015951;28;20178;-89
2022/03/23 01:58:25;;;;;;;35.63;19.92;;;11.60;49.40;;;;;;5016059;28;20174;-88
2022/03/23 02:00:51;;;;;;;36.88;20.70;;;11.60;49.70;;;;;;5034802;28;20562;-89
2022/03/23 02:03:17;;;;;;;42.83;17.93;;;11.50;49.70;;;;;;5017318;28;20177;-88
2022/03/23 02:05:43;;;;;;;37.37;18.30;;;11.70;49.70;;;;;;5015226;28;20429;-89
2022/03/23 02:08:11;;;;;;;39.37;19.43;;;11.60;49.40;;;;;;5015768;28;20182;-89
2022/03/23 02:10:37;;;;;;;37.70;20.45;;;11.60;49.50;;;;;;5015185;28;20217;-89
2022/03/23 02:13:02;;;;;;;30.83;19.60;;;11.40;49.90;;;;;;5015454;28;20182;-89
2022/03/23 02:15:29;;;;;;;36.07;18.10;;;11.50;50.20;;;;;;5032721;28;20660;-89
2022/03/23 02:17:57;;;;;;;44.72;21.17;;;11.50;50.30;;;;;;4996254;28;20433;-89
2022/03/23 02:20:24;;;;;;;38.30;18.80;;;11.50;50.40;;;;;;4995651;28;20246;-88
2022/03/23 02:22:50;;;;;;;33.50;19.05;;;11.40;50.50;;;;;;4995683;28;20622;-89
2022/03/23 02:25:22;;;;;;;33.75;18.20;;;11.40;51.50;;;;;;4996735;28;20187;-89
2022/03/23 02:27:48;;;;;;;34.22;18.20;;;11.30;50.60;;;;;;4997386;28;20204;-89
2022/03/23 02:30:14;;;;;;;32.72;18.67;;;11.30;50.80;;;;;;5015462;28;20218;-89
2022/03/23 02:32:40;;;;;;;30.05;17.75;;;11.30;51.10;;;;;;5011405;28;20273;-89
2022/03/23 02:35:08;;;;;;;40.00;19.27;;;11.20;51.10;;;;;;5019100;28;20264;-90
2022/03/23 02:37:35;;;;;;;38.10;19.38;;;11.30;51.30;;;;;;5037613;28;20507;-90
2022/03/23 02:40:01;;;;;;;33.40;18.92;;;11.30;51.30;;;;;;5018693;28;20288;-90
2022/03/23 02:42:27;;;;;;;38.90;18.45;;;11.40;51.30;;;;;;5018889;28;20680;-90
2022/03/23 02:44:53;;;;;;;37.20;19.43;;;11.40;51.20;;;;;;5038087;28;20205;-89
2022/03/23 02:47:19;;;;;;;33.90;19.40;;;11.30;51.40;;;;;;5019376;28;20331;-90
2022/03/23 02:49:44;;;;;;;29.87;20.37;;;11.40;51.60;;;;;;5037295;28;20692;-90
2022/03/23 02:52:10;;;;;;;33.80;18.77;;;11.40;52.00;;;;;;5001440;28;20500;-89
2022/03/23 03:03:36;;;;;;;39.00;17.67;;;11.00;52.60;;;;;;5025275;28;20193;-90
2022/03/23 03:06:06;;;;;;;34.20;19.20;;;10.90;52.80;;;;;;5018861;28;20182;-90
2022/03/23 03:11:26;;;;;;;34.13;18.38;;;10.80;53.20;;;;;;5018721;28;20178;-89
2022/03/23 03:13:52;;;;;;;30.90;19.10;;;10.70;53.50;;;;;;5028718;28;20174;-89
2022/03/23 03:16:19;;;;;;;35.95;17.23;;;10.70;53.70;;;;;;5030488;28;20598;-90
2022/03/23 03:18:46;;;;;;;36.08;18.25;;;10.70;53.70;;;;;;5018066;28;20523;-90
2022/03/23 03:21:13;;;;;;;35.03;19.20;;;10.70;53.80;;;;;;5017526;28;20221;-89
2022/03/23 03:23:44;;;;;;;38.20;19.95;;;10.80;53.60;;;;;;5018767;28;20178;-90
2022/03/23 03:26:11;;;;;;;39.58;18.83;;;10.70;53.60;;;;;;5018849;28;20170;-89
2022/03/23 03:28:38;;;;;;;35.55;20.98;;;10.70;53.80;;;;;;5018855;28;20181;-89
2022/03/23 03:31:07;;;;;;;34.40;18.15;;;10.70;54.00;;;;;;5036362;28;20194;-89
2022/03/23 03:33:33;;;;;;;38.20;19.60;;;10.70;54.20;;;;;;5018608;28;20177;-89
2022/03/23 03:35:59;;;;;;;35.30;18.42;;;10.60;54.10;;;;;;5036408;28;20177;-89
2022/03/23 03:38:30;;;;;;;43.42;19.75;;;10.70;54.20;;;;;;5017943;28;20204;-90
2022/03/23 03:40:57;;;;;;;31.45;19.13;;;10.70;54.70;;;;;;5016918;28;20198;-90
2022/03/23 03:43:24;;;;;;;37.03;18.13;;;10.70;54.10;;;;;;5017856;28;20319;-90
2022/03/23 03:45:51;;;;;;;34.72;18.20;;;10.60;54.20;;;;;;5035697;28;20790;-90
2022/03/23 03:48:17;;;;;;;35.25;18.77;;;10.70;54.20;;;;;;5018439;28;20637;-90
2022/03/23 03:50:43;;;;;;;42.60;19.83;;;10.60;53.50;;;;;;5017798;28;20313;-89
2022/03/23 03:53:09;;;;;;;32.28;18.00;;;10.50;53.90;;;;;;5017905;28;20182;-89
2022/03/23 03:55:39;;;;;;;33.20;18.10;;;10.50;54.70;;;;;;5017683;28;20642;-88
2022/03/23 03:58:06;;;;;;;45.90;17.88;;;10.50;54.70;;;;;;5009700;28;20439;-89
2022/03/23 04:00:35;;;;;;;37.80;18.77;;;10.40;54.80;;;;;;4999268;28;20207;-89
2022/03/23 04:03:02;;;;;;;38.08;16.95;;;10.40;55.00;;;;;;4998722;28;20414;-89
2022/03/23 04:05:28;;;;;;;37.10;18.90;;;10.30;55.80;;;;;;4997994;28;20265;-89
2022/03/23 04:07:55;;;;;;;35.75;19.30;;;10.20;55.10;;;;;;5019666;28;20186;-88
2022/03/23 04:10:22;;;;;;;34.33;18.23;;;10.10;55.40;;;;;;5018905;28;20211;-88
2022/03/23 04:12:47;;;;;;;40.92;19.25;;;10.00;55.60;;;;;;5018719;28;20588;-88
2022/03/23 04:15:14;;;;;;;40.43;21.07;;;10.00;55.70;;;;;;5018184;28;20347;-88
2022/03/23 04:17:40;;;;;;;31.58;19.90;;;9.80;55.80;;;;;;5017888;28;20425;-89
2022/03/23 04:20:07;;;;;;;43.50;20.65;;;9.90;56.00;;;;;;5017261;28;20221;-88
2022/03/23 04:22:33;;;;;;;48.47;21.77;;;9.90;56.00;;;;;;5016812;28;20284;-88
2022/03/23 04:24:59;;;;;;;40.42;20.08;;;9.80;56.00;;;;;;5017486;28;20182;-88
2022/03/23 04:27:25;;;;;;;44.27;19.67;;;9.80;56.10;;;;;;5017511;28;20182;-88
2022/03/23 04:29:50;;;;;;;38.90;21.30;;;10.00;55.80;;;;;;5017762;28;20469;-88
2022/03/23 04:32:16;;;;;;;38.07;18.90;;;10.00;55.60;;;;;;5017360;28;20192;-89
2022/03/23 04:34:42;;;;;;;40.13;20.90;;;10.10;55.70;;;;;;5017354;28;20424;-89
2022/03/23 04:37:08;;;;;;;40.27;18.03;;;10.10;55.70;;;;;;5019518;28;20240;-88
2022/03/23 04:39:33;;;;;;;31.67;19.03;;;10.10;55.80;;;;;;5018084;28;20444;-88
2022/03/23 04:41:59;;;;;;;46.23;21.10;;;10.00;56.10;;;;;;5019169;28;20638;-87
2022/03/23 04:44:25;;;;;;;44.13;20.30;;;10.00;56.20;;;;;;5018176;28;20598;-88
2022/03/23 04:46:52;;;;;;;41.00;18.90;;;10.00;56.40;;;;;;5034479;28;20681;-88
2022/03/23 04:49:18;;;;;;;42.28;20.67;;;10.00;56.90;;;;;;5019965;28;20223;-88
2022/03/23 04:51:44;;;;;;;36.97;19.70;;;9.90;57.20;;;;;;5028898;28;20237;-88
2022/03/23 04:54:09;;;;;;;44.53;19.17;;;9.80;57.30;;;;;;5027800;28;20200;-90
2022/03/23 04:56:35;;;;;;;41.20;20.70;;;9.70;57.50;;;;;;5046463;28;20217;-90
2022/03/23 04:59:01;;;;;;;42.20;19.97;;;9.60;57.70;;;;;;5034535;28;20190;-91
2022/03/23 05:01:27;;;;;;;46.67;21.90;;;9.60;57.90;;;;;;5037501;28;20251;-89
2022/03/23 05:03:52;;;;;;;43.53;20.57;;;9.50;58.00;;;;;;5031166;28;20201;-88
2022/03/23 05:06:19;;;;;;;38.93;21.50;;;9.60;57.90;;;;;;5038572;28;20801;-88
2022/03/23 05:08:45;;;;;;;51.13;20.30;;;9.60;57.80;;;;;;5018719;28;20435;-89
2022/03/23 05:11:11;;;;;;;33.42;20.95;;;9.50;57.90;;;;;;5033916;28;20209;-88
2022/03/23 05:13:37;;;;;;;40.60;19.57;;;9.50;57.90;;;;;;5020160;28;20170;-89
2022/03/23 05:16:03;;;;;;;39.57;19.50;;;9.50;57.70;;;;;;5017681;28;20174;-89
2022/03/23 05:18:29;;;;;;;33.42;18.67;;;9.20;57.90;;;;;;5018180;28;20481;-89
2022/03/23 05:20:55;;;;;;;44.57;20.03;;;9.10;58.30;;;;;;5033619;28;20245;-89
2022/03/23 05:23:21;;;;;;;40.13;20.57;;;9.20;58.40;;;;;;5068880;22;20485;-87
2022/03/23 05:25:46;;;;;;;37.80;20.52;;;9.20;58.20;;;;;;5038353;28;20412;-87
2022/03/23 05:28:13;;;;;;;39.50;19.57;;;9.20;58.00;;;;;;5038340;28;20250;-87
2022/03/23 05:30:39;;;;;;;35.25;18.70;;;9.30;58.00;;;;;;5038807;28;20599;-88
2022/03/23 05:33:05;;;;;;;45.07;20.03;;;9.30;58.00;;;;;;5038527;28;20200;-88
2022/03/23 05:35:31;;;;;;;33.60;20.55;;;9.20;58.10;;;;;;5038838;28;20424;-89
2022/03/23 05:37:57;;;;;;;34.72;20.17;;;9.10;58.40;;;;;;5041260;28;20185;-87
2022/03/23 05:40:23;;;;;;;39.13;21.55;;;9.20;58.50;;;;;;5040646;28;20185;-87
2022/03/23 05:42:56;;;;;;;35.07;20.40;;;9.20;58.50;;;;;;5038589;28;20208;-87
2022/03/23 05:45:22;;;;;;;44.95;19.80;;;9.40;58.50;;;;;;5037569;28;20423;-87
2022/03/23 05:47:52;;;;;;;40.42;20.45;;;9.40;58.30;;;;;;5038215;28;20274;-88
2022/03/23 05:50:18;;;;;;;45.08;22.30;;;9.30;58.40;;;;;;5039060;28;20296;-87
2022/03/23 05:52:44;;;;;;;44.33;22.30;;;9.30;58.50;;;;;;5039953;28;20220;-88
2022/03/23 05:55:10;;;;;;;35.57;22.00;;;9.40;58.20;;;;;;5057255;28;20189;-88
2022/03/23 05:57:37;;;;;;;45.33;23.50;;;9.50;58.00;;;;;;5038724;28;20697;-89
2022/03/23 06:00:05;;;;;;;34.28;20.65;;;9.50;57.80;;;;;;5038529;28;20278;-88
2022/03/23 06:02:31;;;;;;;34.35;21.40;;;9.50;57.70;;;;;;5037541;28;20275;-88
2022/03/23 06:04:57;;;;;;;35.70;21.63;;;9.60;57.70;;;;;;5055268;28;20200;-88
2022/03/23 06:07:22;;;;;;;45.47;20.77;;;9.80;57.60;;;;;;5037863;28;20683;-88
2022/03/23 06:09:48;;;;;;;38.63;21.70;;;10.10;57.30;;;;;;5056159;28;20559;-88
2022/03/23 06:12:14;;;;;;;39.00;21.13;;;10.40;56.60;;;;;;5038945;28;20193;-89
2022/03/23 06:14:44;;;;;;;42.80;21.25;;;10.80;55.80;;;;;;5057360;28;20181;-88
2022/03/23 06:17:11;;;;;;;41.65;20.17;;;11.30;54.70;;;;;;5063990;28;20158;-89
2022/03/23 06:19:37;;;;;;;39.35;21.60;;;11.90;52.70;;;;;;5030786;28;20232;-89
2022/03/23 06:22:04;;;;;;;43.70;21.77;;;12.30;51.30;;;;;;5019825;28;20182;-88
2022/03/23 06:24:30;;;;;;;39.33;22.27;;;12.80;49.90;;;;;;5018603;28;20405;-89
2022/03/23 06:26:56;;;;;;;39.83;23.15;;;13.30;48.60;;;;;;5018675;28;20192;-89
2022/03/23 06:29:21;;;;;;;39.37;24.63;;;13.90;46.90;;;;;;5024340;28;20300;-88
2022/03/23 06:31:51;;;;;;;43.37;24.97;;;14.60;45.00;;;;;;5023824;28;20182;-88
2022/03/23 06:34:16;;;;;;;44.60;27.38;;;15.10;42.50;;;;;;5043924;28;20173;-88
2022/03/23 06:36:42;;;;;;;52.87;26.47;;;15.20;41.30;;;;;;5042213;28;20189;-87
2022/03/23 06:39:22;;;;;;;48.50;24.53;;;15.00;41.20;;;;;;5042653;28;20207;-88
2022/03/23 06:41:48;;;;;;;38.58;23.25;;;14.70;41.60;;;;;;5047934;28;20185;-89
2022/03/23 06:44:15;;;;;;;44.83;24.73;;;14.40;42.00;;;;;;5055693;28;20233;-88
2022/03/23 06:46:41;;;;;;;39.13;22.73;;;14.10;42.70;;;;;;5057698;28;20192;-89
2022/03/23 06:49:07;;;;;;;47.07;23.63;;;13.50;43.00;;;;;;5057936;28;20217;-88
2022/03/23 06:51:33;;;;;;;47.77;24.60;;;13.20;43.80;;;;;;5074257;28;20411;-87
2022/03/23 06:53:59;;;;;;;52.73;24.57;;;12.90;44.90;;;;;;5057769;28;20217;-88
2022/03/23 06:56:25;;;;;;;47.27;24.70;;;12.60;45.90;;;;;;5073664;28;20416;-88
2022/03/23 06:58:50;;;;;;;47.60;24.80;;;12.40;46.80;;;;;;5045993;28;20177;-88
2022/03/23 07:01:16;;;;;;;41.60;24.03;;;12.10;47.60;;;;;;5040170;28;20442;-88
2022/03/23 07:03:42;;;;;;;40.40;24.60;;;11.90;48.10;;;;;;5037848;28;20201;-88
2022/03/23 07:06:07;;;;;;;41.53;23.67;;;11.70;48.70;;;;;;5037249;28;20415;-88
2022/03/23 07:11:17;;;;;;;40.65;23.48;;;11.50;49.40;;;;;;5056477;28;20176;-89
2022/03/23 07:13:43;;;;;;;47.93;23.00;;;11.20;49.60;;;;;;5037648;28;20590;-89
2022/03/23 07:16:11;;;;;;;39.33;23.80;;;11.20;50.00;;;;;;5040207;28;20408;-89
2022/03/23 07:18:37;;;;;;;46.00;24.17;;;11.10;50.10;;;;;;5043002;28;20180;-89
2022/03/23 07:21:04;;;;;;;44.30;24.50;;;11.10;50.10;;;;;;5041441;28;20181;-90
2022/03/23 07:23:31;;;;;;;39.25;23.00;;;10.90;50.30;;;;;;5057127;28;20451;-90
2022/03/23 07:25:56;;;;;;;45.03;23.98;;;11.00;50.50;;;;;;5057731;28;20173;-91
2022/03/23 07:28:22;;;;;;;44.37;21.63;;;10.90;49.50;;;;;;5058568;28;20162;-90
2022/03/23 07:30:48;;;;;;;45.13;22.07;;;10.90;49.60;;;;;;5040152;28;20280;-91
2022/03/23 07:33:13;;;;;;;46.87;23.93;;;11.00;49.60;;;;;;5039933;28;20189;-90
2022/03/23 07:35:39;;;;;;;45.67;24.97;;;11.00;49.30;;;;;;5040553;28;20227;-90
2022/03/23 07:38:05;;;;;;;49.10;26.10;;;10.80;49.00;;;;;;5041447;28;20648;-90
2022/03/23 07:40:30;;;;;;;49.10;23.97;;;10.80;49.20;;;;;;5044798;28;20264;-89
2022/03/23 07:42:56;;;;;;;40.07;22.23;;;10.70;50.20;;;;;;5041860;28;20212;-90
2022/03/23 07:45:22;;;;;;;56.00;25.60;;;10.70;50.40;;;;;;5051229;28;20173;-89
2022/03/23 07:47:48;;;;;;;43.90;24.37;;;10.70;50.50;;;;;;5079496;28;20165;-89
2022/03/23 07:50:13;;;;;;;44.27;25.00;;;10.80;50.20;;;;;;5080345;28;20520;-88
2022/03/23 07:52:39;;;;;;;46.70;23.37;;;10.90;50.00;;;;;;5070774;28;20703;-90
2022/03/23 07:55:05;;;;;;;44.20;25.70;;;10.90;49.90;;;;;;5040807;28;20288;-90
2022/03/23 07:57:32;;;;;;;42.43;23.77;;;10.90;49.70;;;;;;5058249;28;20180;-90
2022/03/23 07:59:58;;;;;;;43.88;24.77;;;11.00;49.50;;;;;;5040318;28;20424;-91
2022/03/23 08:02:25;;;;;;;47.30;24.88;;;10.90;49.70;;;;;;5042524;28;20208;-91
2022/03/23 08:04:53;;;;;;;58.85;25.30;;;10.90;50.20;;;;;;5064450;28;20177;-91
2022/03/23 08:07:18;;;;;;;44.85;24.58;;;11.00;50.00;;;;;;5048357;28;20181;-88
2022/03/23 08:09:45;;;;;;;51.13;27.13;;;11.20;50.10;;;;;;5051535;28;20216;-88
2022/03/23 08:12:11;;;;;;;43.53;23.88;;;11.30;48.90;;;;;;5054683;28;20435;-88
2022/03/23 08:14:37;;;;;;;51.58;24.10;;;11.30;49.50;;;;;;5062040;28;20180;-88
2022/03/23 08:17:03;;;;;;;48.40;22.52;;;11.40;49.00;;;;;;5058478;28;20173;-88
2022/03/23 08:19:29;;;;;;;48.28;25.13;;;11.50;48.80;;;;;;5039455;28;20185;-88
2022/03/23 08:21:55;;;;;;;46.80;25.83;;;11.80;47.50;;;;;;5057553;28;20196;-88
2022/03/23 08:24:20;;;;;;;51.33;26.23;;;11.80;48.20;;;;;;5040237;28;20181;-88
2022/03/23 08:26:47;;;;;;;51.67;25.53;;;11.90;48.00;;;;;;5066067;28;20189;-89
2022/03/23 08:29:13;;;;;;;50.65;25.83;;;11.30;47.30;;;;;;5046112;28;20704;-88
2022/03/23 08:31:39;;;;;;;44.30;26.03;;;12.00;47.30;;;;;;5057290;28;20182;-87
2022/03/23 08:34:05;;;;;;;47.40;25.23;;;12.10;47.20;;;;;;5039165;28;20435;-88
2022/03/23 08:36:31;;;;;;;48.08;25.00;;;12.10;46.80;;;;;;5039210;28;20420;-88
2022/03/23 08:38:57;;;;;;;50.20;27.73;;;11.90;46.70;;;;;;5039182;28;20264;-88
2022/03/23 08:41:23;;;;;;;45.03;26.15;;;12.10;46.30;;;;;;5039026;28;20419;-87
2022/03/23 08:43:49;;;;;;;51.60;26.03;;;12.20;45.80;;;;;;5038415;28;20201;-89
2022/03/23 08:46:14;;;;;;;45.40;24.97;;;12.30;45.70;;;;;;5039152;28;20177;-88
2022/03/23 08:48:41;;;;;;;45.83;24.97;;;12.10;45.70;;;;;;5038540;28;20177;-88
2022/03/23 08:51:07;;;;;;;41.47;25.08;;;;;;;;;;5038531;28;20235;-88
2022/03/23 08:53:33;;;;;;;45.33;25.75;;;12.60;43.90;;;;;;5041076;28;20211;-89
2022/03/23 08:55:59;;;;;;;53.22;27.25;;;12.70;44.50;;;;;;5038928;28;20656;-89
2022/03/23 08:58:26;;;;;;;56.47;27.77;;;12.90;43.80;;;;;;5056650;28;20177;-88
2022/03/23 09:00:59;;;;;;;51.28;25.48;;;13.00;43.10;;;;;;5039969;28;20177;-88
2022/03/23 09:03:26;;;;;;;50.55;27.35;;;13.00;41.40;;;;;;5039390;28;20611;-88
2022/03/23 09:05:52;;;;;;;49.08;28.13;;;13.30;41.20;;;;;;5039645;28;20224;-88
2022/03/23 09:08:18;;;;;;;47.60;25.98;;;13.30;42.00;;;;;;5027539;28;20282;-89
2022/03/23 09:10:44;;;;;;;50.70;28.00;;;13.40;41.80;;;;;;5042315;28;20232;-89
2022/03/23 09:13:10;;;;;;;45.53;27.27;;;13.60;40.70;;;;;;5039942;28;20440;-89
2022/03/23 09:15:35;;;;;;;47.50;25.70;;;13.70;41.50;;;;;;5040118;28;20942;-88
2022/03/23 09:18:02;;;;;;;47.63;28.77;;;13.80;40.70;;;;;;5043322;28;20251;-88
2022/03/23 09:20:28;;;;;;;46.70;28.20;;;13.90;40.30;;;;;;5038395;28;20213;-88
2022/03/23 09:22:56;;;;;;;54.25;29.10;;;13.80;40.00;;;;;;5032868;28;20217;-88
2022/03/23 09:25:22;;;;;;;46.42;26.35;;;13.80;40.20;;;;;;5033279;28;20192;-88
2022/03/23 09:27:49;;;;;;;49.00;31.50;;;13.80;40.40;;;;;;5033285;28;20182;-89
2022/03/23 09:30:14;;;;;;;53.33;28.83;;;14.00;40.30;;;;;;5034601;28;20460;-89
2022/03/23 09:32:42;;;;;;;46.80;29.87;;;14.20;39.50;;;;;;5034640;28;20221;-88
2022/03/23 09:35:08;;;;;;;52.10;29.40;;;;;;;;;;5032678;28;20412;-89
2022/03/23 09:37:50;;;;;;;55.67;27.30;;;;;;;;;;5024278;28;20182;-91
2022/03/23 09:40:24;;;;;;;50.33;27.42;;;14.60;38.10;;;;;;5045993;28;20216;-92
2022/03/23 09:42:57;;;;;;;54.25;28.52;;;14.60;37.90;;;;;;5051752;28;20200;-92
2022/03/23 09:48:11;;;;;;;57.75;29.70;;;14.80;38.30;;;;;;5061507;28;20223;-92
2022/03/23 09:50:40;;;;;;;50.50;27.67;;;14.90;38.00;;;;;;5047029;28;20235;-91
2022/03/23 09:53:07;;;;;;;63.08;29.90;;;15.00;38.20;;;;;;5056068;28;20193;-91
2022/03/23 09:55:33;;;;;;;49.58;29.58;;;15.00;38.30;;;;;;5037650;28;20181;-92
2022/03/23 09:58:01;;;;;;;50.10;28.50;;;15.10;38.00;;;;;;5037594;28;20264;-91
2022/03/23 10:00:37;;;;;;;48.08;27.02;;;15.20;36.60;;;;;;5037948;28;20211;-91
2022/03/23 10:03:09;;;;;;;49.17;26.13;;;15.20;36.30;;;;;;5037765;28;20211;-91
2022/03/23 10:06:04;;;;;;;54.88;26.55;;;15.10;36.90;;;;;;5055487;28;20201;-91
2022/03/23 10:08:54;;;;;;;44.20;25.52;;;15.00;36.40;;;;;;5012571;28;20181;-90
2022/03/23 10:11:57;;;;;;;50.63;26.40;;;15.00;36.30;;;;;;5043988;28;20221;-90
2022/03/23 10:14:35;;;;;;;48.33;23.55;;;15.10;35.10;;;;;;5045747;28;20239;-91
2022/03/23 10:17:27;;;;;;;45.67;25.45;;;15.20;35.70;;;;;;5042934;28;20174;-90
2022/03/23 10:19:54;;;;;;;44.88;22.60;;;15.60;35.10;;;;;;5003437;28;20201;-90
2022/03/23 10:22:26;;;;;;;41.40;24.05;;;15.70;33.60;;;;;;5044997;28;20649;-90
2022/03/23 10:24:51;;;;;;;38.90;23.35;;;15.80;34.30;;;;;;5032875;28;20182;-90
2022/03/23 10:27:20;;;;;;;46.47;25.50;;;16.00;33.00;;;;;;5037127;28;20169;-90
2022/03/23 10:29:54;;;;;;;41.53;25.02;;;16.10;33.60;;;;;;5058206;28;20268;-90
2022/03/23 10:32:23;;;;;;;41.65;25.23;;;16.20;32.80;;;;;;5043830;28;20181;-91
2022/03/23 10:35:13;;;;;;;50.80;25.95;;;16.20;33.40;;;;;;5053974;28;20564;-91
2022/03/23 10:37:40;;;;;;;42.83;22.40;;;16.20;32.80;;;;;;5061647;28;20260;-90
2022/03/23 10:40:09;;;;;;;47.28;26.02;;;16.30;33.20;;;;;;5035198;28;20177;-89
2022/03/23 10:42:42;;;;;;;49.00;28.08;;;16.40;32.30;;;;;;5032266;28;20197;-91
2022/03/23 10:45:19;;;;;;;53.40;27.67;;;16.40;32.60;;;;;;5046661;28;20169;-93
2022/03/23 10:47:46;;;;;;;46.13;25.77;;;16.50;32.60;;;;;;5046141;28;20184;-90
2022/03/23 10:50:26;;;;;;;47.35;25.25;;;16.60;31.90;;;;;;5045772;28;20231;-91
2022/03/23 10:52:58;;;;;;;45.78;25.83;;;16.60;31.60;;;;;;5026393;28;20264;-91
2022/03/23 10:55:26;;;;;;;62.05;27.50;;;16.60;31.90;;;;;;5064689;28;20184;-91
2022/03/23 10:57:55;;;;;;;55.70;27.60;;;16.60;31.60;;;;;;5043930;28;20192;-91
2022/03/23 11:00:32;;;;;;;44.47;25.50;;;16.70;31.30;;;;;;5043422;28;20181;-92
2022/03/23 11:02:59;;;;;;;49.65;25.35;;;16.80;31.80;;;;;;5041589;28;20199;-91
2022/03/23 11:05:36;;;;;;;53.97;28.73;;;16.90;31.00;;;;;;5041639;28;20185;-91
2022/03/23 11:08:21;;;;;;;50.90;29.73;;;17.00;30.20;;;;;;5041560;28;20169;-91
2022/03/23 11:16:30;;;;;;;50.85;28.40;;;17.00;30.00;;;;;;5062271;28;20185;-91
2022/03/23 11:19:18;;;;;;;41.35;25.02;;;17.10;30.00;;;;;;5059816;28;20177;-91
2022/03/23 11:22:07;;;;;;;44.72;26.80;;;17.30;30.40;;;;;;5041570;28;20173;-90
2022/03/23 11:24:43;;;;;;;45.03;26.08;;;17.40;30.10;;;;;;5040499;28;20177;-89
2022/03/23 11:27:18;;;;;;;46.42;26.30;;;17.40;30.00;;;;;;5040370;28;20699;-89
2022/03/23 11:29:46;;;;;;;40.45;23.20;;;17.60;30.00;;;;;;5040633;28;20208;-90
2022/03/23 11:32:24;;;;;;;43.15;25.02;;;17.70;30.00;;;;;;5058977;28;20209;-91
2022/03/23 11:34:56;;;;;;;44.55;26.77;;;17.70;30.00;;;;;;5023397;28;20596;-90
2022/03/23 11:37:23;;;;;;;46.50;25.85;;;17.80;30.00;;;;;;5039850;28;20181;-90
2022/03/23 11:39:51;;;;;;;40.65;26.25;;;17.90;30.00;;;;;;5040654;28;20180;-90
2022/03/23 11:42:19;;;;;;;36.13;23.42;;;;;;;;;;5029611;28;20212;-89
2022/03/23 11:44:46;;;;;;;34.00;22.00;;;17.80;30.00;;;;;;5045519;28;20428;-89
2022/03/23 11:47:40;;;;;;;39.92;23.98;;;17.80;30.00;;;;;;5059520;28;20268;-89
2022/03/23 11:50:25;;;;;;;39.72;22.83;;;17.90;30.00;;;;;;5061349;28;20217;-89
2022/03/23 11:52:54;;;;;;;37.55;22.95;;;17.90;30.00;;;;;;5061444;28;20208;-88
2022/03/23 11:55:40;;;;;;;42.63;21.58;;;17.90;30.00;;;;;;5078984;28;20169;-89
2022/03/23 11:58:18;;;;;;;43.20;25.20;;;17.90;30.00;;;;;;5061129;28;20185;-89
2022/03/23 12:00:51;;;;;;;41.00;23.52;;;17.60;30.00;;;;;;5053850;28;20157;-90
2022/03/23 12:03:41;;;;;;;42.30;22.77;;;17.70;30.00;;;;;;5025880;28;20294;-90
2022/03/23 12:06:16;;;;;;;38.05;21.88;;;17.70;30.00;;;;;;5022751;28;20257;-89
2022/03/23 12:08:58;;;;;;;40.50;22.52;;;17.70;30.00;;;;;;5058456;28;20254;-89
2022/03/23 12:11:34;;;;;;;41.58;22.75;;;18.00;30.00;;;;;;5041000;28;20177;-90
2022/03/23 12:14:03;;;;;;;40.97;22.92;;;18.30;30.00;;;;;;5041918;28;20695;-89
2022/03/23 12:16:50;;;;;;;38.70;23.65;;;18.30;30.00;;;;;;5043736;28;20265;-89
2022/03/23 12:19:23;;;;;;;42.35;22.55;;;18.40;30.00;;;;;;5037367;28;20199;-88
2022/03/23 12:21:58;;;;;;;34.95;22.35;;;18.10;30.00;;;;;;5044477;28;20248;-89
2022/03/23 12:25:15;;;;;;;38.45;23.00;;;18.10;30.00;;;;;;5051036;28;20192;-89
2022/03/23 12:28:01;;;;;;;49.75;23.77;;;18.30;30.00;;;;;;5018823;28;20200;-89
2022/03/23 12:30:27;;;;;;;40.08;23.75;;;18.10;30.00;;;;;;5055136;28;20197;-89
2022/03/23 12:32:58;;;;;;;46.93;24.53;;;18.20;30.00;;;;;;5062774;28;20204;-90
2022/03/23 12:35:34;;;;;;;37.45;22.13;;;18.10;30.00;;;;;;5041240;28;20196;-90
2022/03/23 12:38:02;;;;;;;33.30;21.83;;;18.30;30.00;;;;;;5046573;28;20180;-90
2022/03/23 12:40:43;;;;;;;32.08;19.10;;;18.40;30.00;;;;;;5037259;28;20177;-89
2022/03/23 12:43:09;;;;;;;31.15;20.13;;;18.40;30.00;;;;;;5046323;28;20204;-90
2022/03/23 12:45:39;;;;;;;47.57;20.57;;;18.60;30.00;;;;;;5045466;28;20177;-90
2022/03/23 12:59:18;;;;;;;33.42;19.13;;;18.90;30.00;;;;;;5056968;28;20247;-90
2022/03/23 13:01:44;;;;;;;33.78;15.63;;;18.80;30.00;;;;;;5047218;28;20185;-90
2022/03/23 13:04:40;;;;;;;19.77;10.77;;;19.10;30.00;;;;;;5029523;28;20207;-89
2022/03/23 13:07:27;;;;;;;29.60;12.75;;;19.10;30.00;;;;;;5049420;28;20192;-90
2022/03/23 13:10:04;;;;;;;23.65;14.27;;;19.10;30.00;;;;;;5055863;28;20265;-89